createdAt,value
2022-09-14T00:00:19.953Z,931.85
2022-09-14T00:01:25.583Z,931.85
2022-09-14T00:02:21.133Z,931.86
2022-09-14T00:03:21.621Z,931.85
2022-09-14T00:04:21.963Z,931.86
2022-09-14T00:05:22.499Z,931.87
2022-09-14T00:06:23.436Z,931.86
2022-09-14T00:07:23.617Z,931.85
2022-09-14T00:08:23.834Z,931.84
2022-09-14T00:09:24.739Z,931.8
2022-09-14T00:10:25.670Z,931.78
2022-09-14T00:11:26.005Z,931.71
2022-09-14T00:12:26.903Z,931.7
2022-09-14T00:13:27.238Z,931.66
2022-09-14T00:14:28.137Z,931.6
2022-09-14T00:15:29.044Z,931.59
2022-09-14T00:16:30.041Z,931.55
2022-09-14T00:17:30.327Z,931.5
2022-09-14T00:18:30.644Z,931.47
2022-09-14T00:19:30.850Z,931.48
2022-09-14T00:20:31.484Z,931.46
2022-09-14T00:21:32.551Z,931.48
2022-09-14T00:22:33.469Z,931.43
2022-09-14T00:23:34.399Z,931.41
2022-09-14T00:24:35.103Z,931.41
2022-09-14T00:25:35.735Z,931.37
2022-09-14T00:26:36.225Z,931.36
2022-09-14T00:27:37.139Z,931.39
2022-09-14T00:28:37.642Z,931.39
2022-09-14T00:29:37.875Z,931.42
2022-09-14T00:30:38.821Z,931.4
2022-09-14T00:31:39.050Z,931.39
2022-09-14T00:32:39.643Z,931.42
2022-09-14T00:33:39.830Z,931.4
2022-09-14T00:34:40.484Z,931.37
2022-09-14T00:35:41.039Z,931.35
2022-09-14T00:36:41.958Z,931.37
2022-09-14T00:37:42.681Z,931.32
2022-09-14T00:38:43.317Z,931.3
2022-09-14T00:39:43.989Z,931.3
2022-09-14T00:40:44.957Z,931.33
2022-09-14T00:41:45.563Z,931.33
2022-09-14T00:42:46.513Z,931.33
2022-09-14T00:43:47.049Z,931.33
2022-09-14T00:44:47.227Z,931.29
2022-09-14T00:45:47.929Z,931.29
2022-09-14T00:46:48.250Z,931.27
2022-09-14T00:47:48.943Z,931.27
2022-09-14T00:48:49.851Z,931.28
2022-09-14T00:49:50.333Z,931.3
2022-09-14T00:50:50.696Z,931.3
2022-09-14T00:51:51.042Z,931.29
2022-09-14T00:52:51.518Z,931.25
2022-09-14T00:53:52.155Z,931.25
2022-09-14T00:54:52.509Z,931.24
2022-09-14T00:55:52.700Z,931.24
2022-09-14T00:56:53.643Z,931.21
2022-09-14T00:57:54.273Z,931.21
2022-09-14T00:58:54.606Z,931.17
2022-09-14T00:59:54.820Z,931.13
2022-09-14T01:00:55.758Z,931.11
2022-09-14T01:01:56.387Z,931.11
2022-09-14T01:02:56.617Z,931.09
2022-09-14T01:03:57.556Z,931.11
2022-09-14T01:04:57.999Z,931.1
2022-09-14T01:05:58.639Z,931.09
2022-09-14T01:06:59.586Z,931.04
2022-09-14T01:07:59.773Z,931.03
2022-09-14T01:09:00.113Z,931.02
2022-09-14T01:10:01.030Z,931
2022-09-14T01:11:01.531Z,930.97
2022-09-14T01:12:01.861Z,930.94
2022-09-14T01:13:02.198Z,930.95
2022-09-14T01:14:03.110Z,930.91
2022-09-14T01:15:03.655Z,930.92
2022-09-14T01:16:04.209Z,930.89
2022-09-14T01:17:05.090Z,930.89
2022-09-14T01:18:05.706Z,930.9
2022-09-14T01:19:06.031Z,930.87
2022-09-14T01:20:06.942Z,930.91
2022-09-14T01:21:07.251Z,930.92
2022-09-14T01:22:07.463Z,930.92
2022-09-14T01:23:07.943Z,930.87
2022-09-14T01:24:08.559Z,930.85
2022-09-14T01:25:08.981Z,930.89
2022-09-14T01:26:09.168Z,930.79
2022-09-14T01:27:09.369Z,930.76
2022-09-14T01:28:10.285Z,930.75
2022-09-14T01:29:10.478Z,930.7
2022-09-14T01:30:11.382Z,930.68
2022-09-14T01:31:11.644Z,930.66
2022-09-14T01:32:12.588Z,930.67
2022-09-14T01:33:13.185Z,930.65
2022-09-14T01:34:14.100Z,930.61
2022-09-14T01:35:16.027Z,930.66
2022-09-14T01:36:15.713Z,930.62
2022-09-14T01:37:16.713Z,930.58
2022-09-14T01:38:17.642Z,930.61
2022-09-14T01:39:18.534Z,930.64
2022-09-14T01:40:19.227Z,930.63
2022-09-14T01:41:19.836Z,930.62
2022-09-14T01:42:20.168Z,930.61
2022-09-14T01:43:20.657Z,930.6
2022-09-14T01:44:20.938Z,930.66
2022-09-14T01:45:21.703Z,930.61
2022-09-14T01:46:22.619Z,930.53
2022-09-14T01:47:23.112Z,930.64
2022-09-14T01:48:23.713Z,930.59
2022-09-14T01:49:24.333Z,930.6
2022-09-14T01:50:24.657Z,930.52
2022-09-14T01:51:25.267Z,930.53
2022-09-14T01:52:26.215Z,930.53
2022-09-14T01:53:26.840Z,930.51
2022-09-14T01:54:27.746Z,930.53
2022-09-14T01:55:28.770Z,930.5
2022-09-14T01:56:29.409Z,930.53
2022-09-14T01:57:30.318Z,930.53
2022-09-14T01:58:31.264Z,930.54
2022-09-14T01:59:32.304Z,930.55
2022-09-14T02:00:32.594Z,930.59
2022-09-14T02:01:33.557Z,930.56
2022-09-14T02:02:34.684Z,930.6
2022-09-14T02:03:34.735Z,930.56
2022-09-14T02:04:35.254Z,930.6
2022-09-14T02:05:35.976Z,930.6
2022-09-14T02:06:36.519Z,930.57
2022-09-14T02:07:37.163Z,930.59
2022-09-14T02:08:37.360Z,930.58
2022-09-14T02:09:37.708Z,930.56
2022-09-14T02:10:38.623Z,930.58
2022-09-14T02:11:38.841Z,930.6
2022-09-14T02:12:39.035Z,930.58
2022-09-14T02:13:39.254Z,930.58
2022-09-14T02:14:39.922Z,930.6
2022-09-14T02:15:40.214Z,930.58
2022-09-14T02:16:41.059Z,930.57
2022-09-14T02:17:41.404Z,930.55
2022-09-14T02:18:42.318Z,930.55
2022-09-14T02:19:42.936Z,930.52
2022-09-14T02:20:43.126Z,930.49
2022-09-14T02:21:43.360Z,930.49
2022-09-14T02:22:44.300Z,930.49
2022-09-14T02:23:45.197Z,930.48
2022-09-14T02:24:45.541Z,930.5
2022-09-14T02:25:45.990Z,930.52
2022-09-14T02:26:46.585Z,930.52
2022-09-14T02:27:47.071Z,930.51
2022-09-14T02:28:47.727Z,930.51
2022-09-14T02:29:48.083Z,930.55
2022-09-14T02:30:48.415Z,930.51
2022-09-14T02:31:49.326Z,930.49
2022-09-14T02:32:50.159Z,930.45
2022-09-14T02:33:51.074Z,930.45
2022-09-14T02:34:51.262Z,930.4
2022-09-14T02:35:52.341Z,930.41
2022-09-14T02:36:52.586Z,930.36
2022-09-14T02:37:52.799Z,930.34
2022-09-14T02:38:53.698Z,930.29
2022-09-14T02:39:54.383Z,930.25
2022-09-14T02:40:54.827Z,930.25
2022-09-14T02:41:55.122Z,930.21
2022-09-14T02:42:55.736Z,930.2
2022-09-14T02:43:56.058Z,930.16
2022-09-14T02:44:56.693Z,930.16
2022-09-14T02:45:56.838Z,930.14
2022-09-14T02:46:57.847Z,930.08
2022-09-14T02:47:58.490Z,930.12
2022-09-14T02:48:58.689Z,930.13
2022-09-14T02:49:59.315Z,930.11
2022-09-14T02:50:59.911Z,930.13
2022-09-14T02:52:00.334Z,930.11
2022-09-14T02:53:01.277Z,930.11
2022-09-14T02:54:02.168Z,930.12
2022-09-14T02:55:02.378Z,930.12
2022-09-14T02:56:02.812Z,930.12
2022-09-14T02:57:03.020Z,930.13
2022-09-14T02:58:03.508Z,930.14
2022-09-14T02:59:04.128Z,930.15
2022-09-14T03:00:04.465Z,930.14
2022-09-14T03:01:05.413Z,930.12
2022-09-14T03:02:06.389Z,930.14
2022-09-14T03:03:07.399Z,930.15
2022-09-14T03:04:08.038Z,930.18
2022-09-14T03:05:08.378Z,930.18
2022-09-14T03:06:08.830Z,930.17
2022-09-14T03:07:09.370Z,930.18
2022-09-14T03:08:09.742Z,930.17
2022-09-14T03:09:10.216Z,930.2
2022-09-14T03:10:10.566Z,930.19
2022-09-14T03:11:11.629Z,930.17
2022-09-14T03:12:12.121Z,930.16
2022-09-14T03:13:12.760Z,930.16
2022-09-14T03:14:13.393Z,930.2
2022-09-14T03:15:13.736Z,930.21
2022-09-14T03:16:14.748Z,930.22
2022-09-14T03:17:15.285Z,930.24
2022-09-14T03:18:16.200Z,930.21
2022-09-14T03:19:16.522Z,930.18
2022-09-14T03:20:16.707Z,930.17
2022-09-14T03:21:17.345Z,930.19
2022-09-14T03:22:17.744Z,930.15
2022-09-14T03:23:17.978Z,930.16
2022-09-14T03:24:18.893Z,930.15
2022-09-14T03:25:19.508Z,930.18
2022-09-14T03:26:19.947Z,930.2
2022-09-14T03:27:20.587Z,930.17
2022-09-14T03:28:20.776Z,930.15
2022-09-14T03:29:21.407Z,930.17
2022-09-14T03:30:22.301Z,930.25
2022-09-14T03:31:22.831Z,930.24
2022-09-14T03:32:23.545Z,930.28
2022-09-14T03:33:23.862Z,930.27
2022-09-14T03:34:24.186Z,930.24
2022-09-14T03:35:24.402Z,930.25
2022-09-14T03:36:24.726Z,930.28
2022-09-14T03:37:24.982Z,930.24
2022-09-14T03:38:25.334Z,930.23
2022-09-14T03:39:26.211Z,930.22
2022-09-14T03:40:26.663Z,930.23
2022-09-14T03:41:26.907Z,930.29
2022-09-14T03:42:27.322Z,930.28
2022-09-14T03:43:27.514Z,930.28
2022-09-14T03:44:28.437Z,930.26
2022-09-14T03:45:28.768Z,930.29
2022-09-14T03:46:29.435Z,930.33
2022-09-14T03:47:30.080Z,930.39
2022-09-14T03:48:31.000Z,930.34
2022-09-14T03:49:31.619Z,930.31
2022-09-14T03:50:32.513Z,930.31
2022-09-14T03:51:32.702Z,930.36
2022-09-14T03:52:33.246Z,930.35
2022-09-14T03:53:33.976Z,930.35
2022-09-14T03:54:34.315Z,930.38
2022-09-14T03:55:35.253Z,930.3
2022-09-14T03:56:36.061Z,930.31
2022-09-14T03:57:36.977Z,930.34
2022-09-14T03:58:37.876Z,930.33
2022-09-14T03:59:41.728Z,930.36
2022-09-14T04:00:39.361Z,930.37
2022-09-14T04:01:39.991Z,930.37
2022-09-14T04:02:40.819Z,930.31
2022-09-14T04:03:41.178Z,930.34
2022-09-14T04:04:42.072Z,930.31
2022-09-14T04:05:42.972Z,930.35
2022-09-14T04:06:43.464Z,930.36
2022-09-14T04:07:43.811Z,930.35
2022-09-14T04:08:44.452Z,930.32
2022-09-14T04:09:45.475Z,930.33
2022-09-14T04:10:45.663Z,930.34
2022-09-14T04:11:46.579Z,930.37
2022-09-14T04:12:46.913Z,930.36
2022-09-14T04:13:47.249Z,930.35
2022-09-14T04:14:47.732Z,930.39
2022-09-14T04:15:48.411Z,930.38
2022-09-14T04:16:48.898Z,930.33
2022-09-14T04:17:49.803Z,930.37
2022-09-14T04:18:50.715Z,930.39
2022-09-14T04:19:51.334Z,930.37
2022-09-14T04:20:51.979Z,930.38
2022-09-14T04:21:52.785Z,930.39
2022-09-14T04:22:53.100Z,930.34
2022-09-14T04:24:54.733Z,930.36
2022-09-14T04:25:55.420Z,930.34
2022-09-14T04:26:56.406Z,930.3
2022-09-14T04:28:17.051Z,930.31
2022-09-14T04:28:57.649Z,930.32
2022-09-14T04:29:58.562Z,930.3
2022-09-14T04:30:59.484Z,930.29
2022-09-14T04:32:00.560Z,930.26
2022-09-14T04:33:01.175Z,930.27
2022-09-14T04:34:02.090Z,930.29
2022-09-14T04:35:02.720Z,930.25
2022-09-14T04:36:03.340Z,930.25
2022-09-14T04:37:04.072Z,930.25
2022-09-14T04:38:04.347Z,930.28
2022-09-14T04:39:04.638Z,930.24
2022-09-14T04:40:05.296Z,930.23
2022-09-14T04:41:05.564Z,930.18
2022-09-14T04:42:05.894Z,930.21
2022-09-14T04:43:06.236Z,930.18
2022-09-14T04:44:06.428Z,930.19
2022-09-14T04:45:07.324Z,930.16
2022-09-14T04:46:08.312Z,930.19
2022-09-14T04:47:08.409Z,930.17
2022-09-14T04:48:09.304Z,930.12
2022-09-14T04:49:09.619Z,930.13
2022-09-14T04:50:09.978Z,930.13
2022-09-14T04:51:10.892Z,930.18
2022-09-14T04:52:11.107Z,930.28
2022-09-14T04:53:11.724Z,930.3
2022-09-14T04:54:12.660Z,930.26
2022-09-14T04:55:13.565Z,930.21
2022-09-14T04:56:14.205Z,930.16
2022-09-14T04:57:15.193Z,930.16
2022-09-14T04:58:15.808Z,930.06
2022-09-14T04:59:16.428Z,930.15
2022-09-14T05:00:17.316Z,930.16
2022-09-14T05:01:17.935Z,930.21
2022-09-14T05:02:18.186Z,930.21
2022-09-14T05:03:18.878Z,930.21
2022-09-14T05:04:19.127Z,930.19
2022-09-14T05:05:19.726Z,930.24
2022-09-14T05:06:19.879Z,930.27
2022-09-14T05:07:20.327Z,930.22
2022-09-14T05:08:20.565Z,930.22
2022-09-14T05:09:21.203Z,930.24
2022-09-14T05:10:22.126Z,930.27
2022-09-14T05:11:23.066Z,930.3
2022-09-14T05:12:23.705Z,930.3
2022-09-14T05:13:23.897Z,930.23
2022-09-14T05:14:24.517Z,930.25
2022-09-14T05:15:25.136Z,930.31
2022-09-14T05:16:26.271Z,930.31
2022-09-14T05:17:26.381Z,930.31
2022-09-14T05:18:27.294Z,930.36
2022-09-14T05:19:27.970Z,930.33
2022-09-14T05:20:28.886Z,930.35
2022-09-14T05:21:29.098Z,930.42
2022-09-14T05:22:29.694Z,930.4
2022-09-14T05:23:30.389Z,930.41
2022-09-14T05:24:31.156Z,930.4
2022-09-14T05:25:31.342Z,930.41
2022-09-14T05:26:31.981Z,930.44
2022-09-14T05:27:32.408Z,930.43
2022-09-14T05:28:33.298Z,930.52
2022-09-14T05:29:33.484Z,930.53
2022-09-14T05:30:34.105Z,930.57
2022-09-14T05:31:34.467Z,930.57
2022-09-14T05:32:34.949Z,930.56
2022-09-14T05:33:35.901Z,930.54
2022-09-14T05:34:36.888Z,930.52
2022-09-14T05:35:37.206Z,930.46
2022-09-14T05:36:38.120Z,930.46
2022-09-14T05:37:38.523Z,930.45
2022-09-14T05:38:39.056Z,930.42
2022-09-14T05:39:40.073Z,930.42
2022-09-14T05:40:40.953Z,930.44
2022-09-14T05:41:41.145Z,930.38
2022-09-14T05:42:41.345Z,930.34
2022-09-14T05:43:41.964Z,930.34
2022-09-14T05:44:42.183Z,930.35
2022-09-14T05:45:42.676Z,930.36
2022-09-14T05:46:43.516Z,930.32
2022-09-14T05:47:44.218Z,930.29
2022-09-14T05:48:45.132Z,930.29
2022-09-14T05:49:45.913Z,930.3
2022-09-14T05:50:46.533Z,930.38
2022-09-14T05:51:46.751Z,930.39
2022-09-14T05:52:47.668Z,930.29
2022-09-14T05:53:48.375Z,930.21
2022-09-14T05:54:48.606Z,930.21
2022-09-14T05:55:48.806Z,930.26
2022-09-14T05:56:49.008Z,930.25
2022-09-14T05:57:50.025Z,930.22
2022-09-14T05:58:50.220Z,930.21
2022-09-14T05:59:51.125Z,930.27
2022-09-14T06:00:52.044Z,930.3
2022-09-14T06:01:53.054Z,930.25
2022-09-14T06:02:53.445Z,930.23
2022-09-14T06:03:54.335Z,930.3
2022-09-14T06:04:55.325Z,930.27
2022-09-14T06:05:55.621Z,930.28
2022-09-14T06:07:17.235Z,930.23
2022-09-14T06:08:05.802Z,930.29
2022-09-14T06:09:06.422Z,930.36
2022-09-14T06:10:06.636Z,930.33
2022-09-14T06:11:06.842Z,930.28
2022-09-14T06:12:07.343Z,930.28
2022-09-14T06:13:07.556Z,930.26
2022-09-14T06:14:07.797Z,930.28
2022-09-14T06:15:08.696Z,930.39
2022-09-14T06:16:09.592Z,930.41
2022-09-14T06:17:10.516Z,930.41
2022-09-14T06:18:10.638Z,930.39
2022-09-14T06:19:10.825Z,930.35
2022-09-14T06:20:11.867Z,930.35
2022-09-14T06:21:12.804Z,930.38
2022-09-14T06:22:13.422Z,930.44
2022-09-14T06:23:14.331Z,930.51
2022-09-14T06:24:14.984Z,930.52
2022-09-14T06:25:15.746Z,930.51
2022-09-14T06:26:16.674Z,930.52
2022-09-14T06:27:17.320Z,930.53
2022-09-14T06:28:18.168Z,930.58
2022-09-14T06:29:19.085Z,930.6
2022-09-14T06:30:19.288Z,930.59
2022-09-14T06:31:20.223Z,930.65
2022-09-14T06:32:21.243Z,930.67
2022-09-14T06:33:21.431Z,930.65
2022-09-14T06:34:22.319Z,930.65
2022-09-14T06:35:22.643Z,930.67
2022-09-14T06:36:23.266Z,930.69
2022-09-14T06:37:23.461Z,930.68
2022-09-14T06:38:23.897Z,930.72
2022-09-14T06:39:24.365Z,930.68
2022-09-14T06:40:25.402Z,930.67
2022-09-14T06:41:26.171Z,930.68
2022-09-14T06:42:26.363Z,930.63
2022-09-14T06:43:27.305Z,930.57
2022-09-14T06:44:28.026Z,930.56
2022-09-14T06:45:28.651Z,930.58
2022-09-14T06:46:29.558Z,930.53
2022-09-14T06:47:30.405Z,930.53
2022-09-14T06:48:30.984Z,930.5
2022-09-14T06:49:31.902Z,930.47
2022-09-14T06:50:32.820Z,930.39
2022-09-14T06:51:33.022Z,930.38
2022-09-14T06:52:34.082Z,930.37
2022-09-14T06:53:34.152Z,930.38
2022-09-14T06:54:34.739Z,930.41
2022-09-14T06:55:35.529Z,930.4
2022-09-14T06:56:36.433Z,930.44
2022-09-14T06:57:39.898Z,930.4
2022-09-14T06:58:37.975Z,930.38
2022-09-14T06:59:38.476Z,930.35
2022-09-14T07:00:38.674Z,930.31
2022-09-14T07:01:39.571Z,930.31
2022-09-14T07:02:40.259Z,930.34
2022-09-14T07:03:40.473Z,930.38
2022-09-14T07:04:41.394Z,930.34
2022-09-14T07:05:42.307Z,930.37
2022-09-14T07:06:43.216Z,930.27
2022-09-14T07:07:44.129Z,930.27
2022-09-14T07:08:45.137Z,930.23
2022-09-14T07:09:46.227Z,930.25
2022-09-14T07:10:47.175Z,930.22
2022-09-14T07:11:48.078Z,930.2
2022-09-14T07:12:48.294Z,930.23
2022-09-14T07:13:48.974Z,930.21
2022-09-14T07:14:49.683Z,930.21
2022-09-14T07:15:49.909Z,930.2
2022-09-14T07:16:50.173Z,930.2
2022-09-14T07:17:50.367Z,930.2
2022-09-14T07:18:51.123Z,930.23
2022-09-14T07:19:52.071Z,930.29
2022-09-14T07:21:53.079Z,930.27
2022-09-14T07:22:53.977Z,930.29
2022-09-14T07:23:54.899Z,930.28
2022-09-14T07:24:55.317Z,930.32
2022-09-14T07:25:56.359Z,930.36
2022-09-14T07:26:56.369Z,930.35
2022-09-14T07:27:57.288Z,930.34
2022-09-14T07:28:58.024Z,930.32
2022-09-14T07:29:58.242Z,930.33
2022-09-14T07:36:02.477Z,930.46
2022-09-14T07:37:02.684Z,930.42
2022-09-14T07:38:03.590Z,930.46
2022-09-14T07:39:03.367Z,930.4
2022-09-14T07:40:03.877Z,930.42
2022-09-14T07:42:04.379Z,930.46
2022-09-14T07:43:05.042Z,930.48
2022-09-14T07:44:05.234Z,930.46
2022-09-14T07:45:05.878Z,930.49
2022-09-14T07:46:06.578Z,930.47
2022-09-14T07:47:06.986Z,930.45
2022-09-14T07:48:07.482Z,930.47
2022-09-14T07:49:07.681Z,930.47
2022-09-14T07:50:08.042Z,930.46
2022-09-14T07:51:08.711Z,930.52
2022-09-14T07:52:09.629Z,930.53
2022-09-14T07:53:10.124Z,930.58
2022-09-14T07:54:10.750Z,930.57
2022-09-14T07:55:11.484Z,930.64
2022-09-14T07:56:12.399Z,930.69
2022-09-14T07:57:13.435Z,930.68
2022-09-14T07:58:13.962Z,930.69
2022-09-14T07:59:37.464Z,930.73
2022-09-14T08:00:37.223Z,930.7
2022-09-14T08:01:37.571Z,930.77
2022-09-14T08:02:38.368Z,930.76
2022-09-14T08:03:39.411Z,930.75
2022-09-14T08:04:40.304Z,930.72
2022-09-14T08:05:40.803Z,930.66
2022-09-14T08:06:41.735Z,930.67
2022-09-14T08:07:42.082Z,930.73
2022-09-14T08:08:42.428Z,930.74
2022-09-14T08:09:42.730Z,930.76
2022-09-14T08:10:43.057Z,930.73
2022-09-14T08:11:43.282Z,930.74
2022-09-14T08:12:43.536Z,930.67
2022-09-14T08:13:44.020Z,930.65
2022-09-14T08:14:44.953Z,930.63
2022-09-14T08:15:46.007Z,930.64
2022-09-14T08:16:46.686Z,930.64
2022-09-14T08:17:46.788Z,930.6
2022-09-14T08:20:59.323Z,930.58
2022-09-14T08:21:59.834Z,930.55
2022-09-14T08:23:00.181Z,930.53
2022-09-14T08:24:01.112Z,930.63
2022-09-14T08:25:01.738Z,930.71
2022-09-14T08:26:02.292Z,930.73
2022-09-14T08:27:02.793Z,930.69
2022-09-14T08:28:03.469Z,930.68
2022-09-14T08:29:04.113Z,930.69
2022-09-14T08:30:04.309Z,930.7
2022-09-14T08:31:04.871Z,930.71
2022-09-14T08:32:05.974Z,930.68
2022-09-14T08:33:06.327Z,930.66
2022-09-14T08:34:07.229Z,930.66
2022-09-14T08:35:08.174Z,930.7
2022-09-14T08:36:08.929Z,930.74
2022-09-14T08:37:09.438Z,930.74
2022-09-14T08:38:09.933Z,930.79
2022-09-14T08:39:10.465Z,930.87
2022-09-14T08:40:11.075Z,930.85
2022-09-14T08:41:11.259Z,930.85
2022-09-14T08:42:11.882Z,930.92
2022-09-14T08:43:13.081Z,930.84
2022-09-14T08:44:13.574Z,930.87
2022-09-14T08:45:13.780Z,930.9
2022-09-14T08:46:13.930Z,930.87
2022-09-14T08:47:14.154Z,930.92
2022-09-14T08:48:14.360Z,930.97
2022-09-14T08:49:15.002Z,930.98
2022-09-14T08:50:15.197Z,931.04
2022-09-14T08:51:15.432Z,931.08
2022-09-14T08:52:18.841Z,931.08
2022-09-14T08:53:16.678Z,931.11
2022-09-14T08:54:16.976Z,931.13
2022-09-14T08:56:17.822Z,931.11
2022-09-14T08:57:18.040Z,931.12
2022-09-14T08:58:18.293Z,931.08
2022-09-14T08:59:19.246Z,931
2022-09-14T09:00:19.514Z,930.99
2022-09-14T09:01:20.047Z,930.95
2022-09-14T09:02:20.842Z,930.95
2022-09-14T09:03:21.755Z,930.98
2022-09-14T09:04:22.257Z,931.01
2022-09-14T09:05:22.525Z,930.98
2022-09-14T09:06:22.726Z,931.03
2022-09-14T09:07:23.233Z,931.02
2022-09-14T09:08:24.498Z,931.01
2022-09-14T09:09:24.571Z,931.02
2022-09-14T09:10:24.912Z,931.03
2022-09-14T09:11:25.669Z,931.04
2022-09-14T09:12:26.568Z,931.09
2022-09-14T09:13:27.721Z,931.06
2022-09-14T09:14:28.651Z,931.02
2022-09-14T09:15:29.590Z,931.09
2022-09-14T09:16:29.836Z,931.1
2022-09-14T09:17:30.322Z,931.13
2022-09-14T09:18:30.951Z,931.14
2022-09-14T09:19:31.593Z,931.1
2022-09-14T09:20:32.256Z,931.08
2022-09-14T09:21:32.936Z,931.06
2022-09-14T09:22:33.847Z,931.07
2022-09-14T09:23:34.753Z,931.01
2022-09-14T09:24:37.386Z,930.99
2022-09-14T09:25:36.172Z,930.99
2022-09-14T09:26:36.812Z,930.94
2022-09-14T09:27:37.457Z,930.92
2022-09-14T09:28:37.913Z,930.94
2022-09-14T09:29:38.402Z,930.93
2022-09-14T09:30:39.343Z,930.92
2022-09-14T09:31:40.003Z,930.89
2022-09-14T09:32:40.638Z,930.92
2022-09-14T09:33:40.831Z,930.86
2022-09-14T09:34:41.495Z,930.88
2022-09-14T09:35:42.129Z,930.89
2022-09-14T09:36:43.050Z,930.87
2022-09-14T09:37:43.690Z,930.86
2022-09-14T09:38:44.610Z,930.86
2022-09-14T09:39:44.799Z,930.84
2022-09-14T09:40:45.304Z,930.91
2022-09-14T09:41:46.160Z,930.87
2022-09-14T09:42:47.111Z,930.88
2022-09-14T09:43:49.550Z,930.88
2022-09-14T09:44:47.995Z,930.87
2022-09-14T09:45:49.049Z,930.89
2022-09-14T09:46:49.998Z,930.89
2022-09-14T09:47:50.111Z,930.88
2022-09-14T09:48:50.469Z,930.81
2022-09-14T09:49:51.110Z,930.81
2022-09-14T09:50:51.760Z,930.77
2022-09-14T09:51:52.771Z,930.71
2022-09-14T09:52:53.678Z,930.69
2022-09-14T09:53:54.159Z,930.63
2022-09-14T09:54:54.380Z,930.58
2022-09-14T09:55:55.422Z,930.59
2022-09-14T09:56:56.074Z,930.59
2022-09-14T09:57:56.242Z,930.59
2022-09-14T09:58:57.196Z,930.66
2022-09-14T09:59:58.114Z,930.61
2022-09-14T10:03:01.297Z,930.62
2022-09-14T10:04:01.578Z,930.58
2022-09-14T10:05:01.801Z,930.64
2022-09-14T10:06:02.708Z,930.57
2022-09-14T10:07:02.927Z,930.59
2022-09-14T10:08:05.990Z,930.6
2022-09-14T10:09:04.002Z,930.5
2022-09-14T10:10:04.925Z,930.46
2022-09-14T10:11:05.161Z,930.52
2022-09-14T10:12:05.609Z,930.53
2022-09-14T10:13:06.278Z,930.55
2022-09-14T10:14:06.601Z,930.44
2022-09-14T10:15:07.237Z,930.47
2022-09-14T10:16:07.769Z,930.4
2022-09-14T10:17:08.617Z,930.52
2022-09-14T10:18:09.132Z,930.45
2022-09-14T10:19:09.762Z,930.45
2022-09-14T10:20:10.701Z,930.42
2022-09-14T10:21:11.662Z,930.42
2022-09-14T10:22:15.512Z,930.5
2022-09-14T10:23:12.560Z,930.43
2022-09-14T10:24:13.276Z,930.3
2022-09-14T10:25:13.805Z,930.39
2022-09-14T10:26:14.724Z,930.43
2022-09-14T10:27:15.382Z,930.45
2022-09-14T10:28:16.428Z,930.41
2022-09-14T10:29:16.682Z,930.43
2022-09-14T10:30:16.889Z,930.35
2022-09-14T10:31:17.295Z,930.3
2022-09-14T10:32:17.912Z,930.21
2022-09-14T10:33:18.887Z,930.26
2022-09-14T10:34:19.619Z,930.25
2022-09-14T10:35:19.840Z,930.28
2022-09-14T10:36:20.777Z,930.14
2022-09-14T10:37:21.733Z,930.16
2022-09-14T10:38:22.643Z,930.19
2022-09-14T10:39:26.085Z,930.13
2022-09-14T10:40:24.280Z,930.14
2022-09-14T10:41:25.201Z,930.11
2022-09-14T10:42:26.143Z,930.12
2022-09-14T10:43:26.777Z,930.14
2022-09-14T10:44:27.191Z,930.1
2022-09-14T10:45:27.387Z,930.11
2022-09-14T10:46:27.624Z,930.09
2022-09-14T10:47:28.316Z,930.12
2022-09-14T10:48:28.754Z,930.11
2022-09-14T10:49:29.135Z,930.07
2022-09-14T10:50:30.039Z,930.12
2022-09-14T10:51:30.406Z,930.07
2022-09-14T10:52:30.771Z,930.08
2022-09-14T10:53:30.976Z,930.09
2022-09-14T10:54:31.970Z,930.01
2022-09-14T10:55:32.899Z,929.97
2022-09-14T10:56:33.546Z,929.95
2022-09-14T10:57:33.806Z,929.93
2022-09-14T10:58:34.489Z,929.98
2022-09-14T10:59:35.034Z,929.97
2022-09-14T11:00:35.680Z,929.94
2022-09-14T11:01:36.658Z,929.88
2022-09-14T11:02:37.457Z,929.94
2022-09-14T11:03:38.881Z,929.89
2022-09-14T11:04:38.472Z,929.9
2022-09-14T11:05:38.681Z,929.83
2022-09-14T11:06:39.627Z,929.84
2022-09-14T11:07:40.533Z,929.88
2022-09-14T11:08:41.440Z,929.83
2022-09-14T11:09:41.661Z,929.8
2022-09-14T11:10:41.868Z,929.85
2022-09-14T11:11:42.496Z,929.8
2022-09-14T11:12:42.766Z,929.85
2022-09-14T11:13:43.446Z,929.81
2022-09-14T11:14:43.822Z,929.76
2022-09-14T11:15:44.343Z,929.83
2022-09-14T11:16:44.718Z,929.81
2022-09-14T11:17:44.919Z,929.72
2022-09-14T11:18:45.873Z,929.68
2022-09-14T11:19:46.113Z,929.7
2022-09-14T11:20:46.358Z,929.7
2022-09-14T11:21:47.284Z,929.66
2022-09-14T11:22:47.791Z,929.61
2022-09-14T11:23:48.717Z,929.57
2022-09-14T11:24:49.754Z,929.61
2022-09-14T11:25:50.664Z,929.62
2022-09-14T11:26:51.043Z,929.67
2022-09-14T11:27:52.078Z,929.61
2022-09-14T11:28:53.013Z,929.55
2022-09-14T11:29:53.347Z,929.57
2022-09-14T11:30:53.660Z,929.64
2022-09-14T11:32:10.418Z,929.59
2022-09-14T11:32:55.211Z,929.63
2022-09-14T11:33:56.215Z,929.49
2022-09-14T11:34:56.954Z,929.54
2022-09-14T11:35:57.602Z,929.52
2022-09-14T11:36:58.551Z,929.46
2022-09-14T11:37:58.776Z,929.42
2022-09-14T11:39:02.370Z,929.41
2022-09-14T11:40:00.027Z,929.36
2022-09-14T11:41:00.468Z,929.34
2022-09-14T11:42:01.096Z,929.27
2022-09-14T11:43:01.750Z,929.27
2022-09-14T11:44:02.312Z,929.21
2022-09-14T11:45:02.813Z,929.19
2022-09-14T11:46:03.034Z,929.17
2022-09-14T11:47:03.369Z,929.14
2022-09-14T11:48:06.961Z,929.14
2022-09-14T11:49:04.649Z,929.15
2022-09-14T11:50:05.273Z,929.16
2022-09-14T11:51:05.472Z,929.17
2022-09-14T11:52:06.423Z,929.19
2022-09-14T11:53:06.628Z,929.15
2022-09-14T11:54:07.588Z,929.2
2022-09-14T11:55:07.999Z,929.23
2022-09-14T11:56:08.500Z,929.28
2022-09-14T11:57:08.702Z,929.24
2022-09-14T11:58:09.082Z,929.27
2022-09-14T11:59:09.310Z,929.28
2022-09-14T12:00:10.344Z,929.26
2022-09-14T12:01:10.542Z,929.23
2022-09-14T12:02:10.785Z,929.27
2022-09-14T12:03:11.766Z,929.26
2022-09-14T12:04:12.403Z,929.26
2022-09-14T12:05:12.718Z,929.26
2022-09-14T12:06:12.927Z,929.21
2022-09-14T12:07:13.192Z,929.19
2022-09-14T12:08:14.104Z,929.17
2022-09-14T12:09:15.044Z,929.14
2022-09-14T12:10:15.991Z,929.17
2022-09-14T12:11:16.921Z,929.16
2022-09-14T12:12:17.575Z,929.16
2022-09-14T12:13:18.126Z,929.15
2022-09-14T12:14:18.327Z,929.13
2022-09-14T12:15:19.157Z,929.15
2022-09-14T12:16:19.267Z,929.22
2022-09-14T12:18:20.451Z,929.27
2022-09-14T12:19:20.699Z,929.26
2022-09-14T12:20:21.351Z,929.26
2022-09-14T12:21:22.422Z,929.3
2022-09-14T12:22:23.434Z,929.24
2022-09-14T12:23:24.073Z,929.26
2022-09-14T12:24:25.161Z,929.21
2022-09-14T12:25:26.230Z,929.23
2022-09-14T12:26:27.168Z,929.21
2022-09-14T12:27:28.105Z,929.22
2022-09-14T12:28:28.903Z,929.21
2022-09-14T12:29:29.847Z,929.25
2022-09-14T12:30:30.095Z,929.26
2022-09-14T12:31:31.003Z,929.25
2022-09-14T12:32:31.764Z,929.27
2022-09-14T12:33:32.711Z,929.26
2022-09-14T12:34:33.346Z,929.27
2022-09-14T12:35:33.805Z,929.3
2022-09-14T12:36:34.055Z,929.29
2022-09-14T12:37:34.287Z,929.29
2022-09-14T12:38:34.802Z,929.25
2022-09-14T12:39:35.736Z,929.23
2022-09-14T12:40:36.401Z,929.24
2022-09-14T12:41:37.375Z,929.3
2022-09-14T12:42:38.279Z,929.32
2022-09-14T12:43:39.045Z,929.38
2022-09-14T12:44:39.416Z,929.39
2022-09-14T12:45:40.462Z,929.41
2022-09-14T12:46:40.609Z,929.46
2022-09-14T12:47:41.675Z,929.43
2022-09-14T12:48:42.581Z,929.46
2022-09-14T12:49:42.822Z,929.44
2022-09-14T12:50:43.776Z,929.48
2022-09-14T12:51:43.998Z,929.48
2022-09-14T12:52:44.201Z,929.5